Time;durP1;ratioP1;P1;durP2;ratioP2;P2;SDS_P1;SDS_P2;PMS_P1;PMS_P2;Temp;Humidity;BMP_temperature;BMP_pressure;BME280_temperature;BME280_humidity;BME280_pressure;Samples;Min_cycle;Max_cycle;Signal;HPM_P1;HPM_P2
2021/06/13 00:00:15;;;;;;;6.05;4.03;;;;;;;16.69;68.45;101258.50;5084185;28;20033;-73
2021/06/13 00:02:42;;;;;;;6.38;4.07;;;;;;;16.67;68.98;101252.50;5086406;28;20103;-72
2021/06/13 00:05:09;;;;;;;7.32;3.92;;;;;;;16.63;68.38;101251.19;5093202;28;20111;-72
2021/06/13 00:07:35;;;;;;;5.97;4.28;;;;;;;16.61;68.48;101260.38;5092444;28;20086;-72
2021/06/13 00:10:00;;;;;;;4.68;3.72;;;;;;;16.63;68.53;101253.84;5092662;28;20431;-72
2021/06/13 00:12:26;;;;;;;6.15;4.10;;;;;;;16.63;68.25;101259.19;5077330;28;20035;-72
2021/06/13 00:14:51;;;;;;;5.10;4.07;;;;;;;16.61;68.86;101257.69;5080805;28;20421;-72
2021/06/13 00:17:18;;;;;;;5.97;4.07;;;;;;;16.59;69.25;101260.56;5080843;28;20112;-73
2021/06/13 00:19:44;;;;;;;5.70;4.18;;;;;;;16.54;69.08;101260.22;5079661;28;20043;-72
2021/06/13 00:22:14;;;;;;;6.22;4.38;;;;;;;16.44;69.22;101263.09;5092317;28;20750;-72
2021/06/13 00:24:40;;;;;;;8.52;4.50;;;;;;;16.34;69.43;101271.31;5082841;28;20132;-72
2021/06/13 00:27:07;;;;;;;7.43;4.85;;;;;;;16.29;69.73;101276.34;5082759;28;20078;-72
2021/06/13 00:29:34;;;;;;;4.85;3.67;;;;;;;16.29;70.66;101272.84;5093737;28;20123;-72
2021/06/13 00:32:00;;;;;;;4.88;3.70;;;;;;;16.31;70.19;101285.00;5093518;28;20040;-72
2021/06/13 00:34:26;;;;;;;5.13;4.10;;;;;;;16.30;68.44;101283.34;5089029;28;20040;-72
2021/06/13 00:36:53;;;;;;;5.85;4.18;;;;;;;16.28;70.02;101282.69;5084216;28;20110;-72
2021/06/13 00:39:21;;;;;;;5.68;3.90;;;;;;;16.21;70.70;101287.03;5092189;28;20043;-72
2021/06/13 00:41:47;;;;;;;7.78;4.32;;;;;;;16.07;70.88;101291.22;5083341;28;20400;-72
2021/06/13 00:44:13;;;;;;;4.95;4.20;;;;;;;15.99;70.65;101287.72;5091713;28;20515;-72
2021/06/13 00:46:40;;;;;;;7.45;4.38;;;;;;;15.93;71.20;101291.91;5091272;28;20036;-72
2021/06/13 00:49:09;;;;;;;6.00;3.90;;;;;;;15.90;71.52;101295.75;5074455;28;20028;-72
2021/06/13 00:51:36;;;;;;;6.22;4.47;;;;;;;15.87;70.90;101293.44;5091796;28;20028;-72
2021/06/13 00:54:02;;;;;;;5.55;4.00;;;;;;;15.89;70.66;101296.72;5091884;28;20507;-72
2021/06/13 00:56:28;;;;;;;4.85;4.03;;;;;;;15.87;72.61;101290.75;5091436;28;20461;-72
2021/06/13 00:58:54;;;;;;;6.75;4.30;;;;;;;15.88;71.82;101296.91;5090412;28;20124;-72
2021/06/13 01:01:21;;;;;;;4.97;4.00;;;;;;;15.84;71.90;101301.75;5082245;28;20028;-72
2021/06/13 01:03:48;;;;;;;6.32;4.07;;;;;;;15.76;71.09;101299.09;5091760;28;20243;-72
2021/06/13 01:06:29;;;;;;;6.88;4.20;;;;;;;15.69;71.74;101304.22;5084977;28;20082;-73
2021/06/13 01:09:05;;;;;;;5.68;4.10;;;;;;;15.63;72.85;101304.88;5090485;28;20453;-72
2021/06/13 01:12:03;;;;;;;5.78;3.65;;;;;;;15.60;72.68;101299.03;5091752;28;20052;-72
2021/06/13 01:14:36;;;;;;;5.28;4.15;;;;;;;15.58;72.26;101303.72;5082979;28;20549;-72
2021/06/13 01:17:36;;;;;;;6.05;4.05;;;;;;;15.54;72.26;101294.38;5089676;28;20349;-72
2021/06/13 01:20:28;;;;;;;6.70;4.00;;;;;;;15.48;72.42;101302.03;5090926;28;20388;-73
2021/06/13 01:23:26;;;;;;;5.50;3.95;;;;;;;15.45;71.94;101305.03;5088126;28;20024;-72
2021/06/13 01:26:10;;;;;;;6.72;3.92;;;;;;;15.38;71.94;101305.84;5088272;28;20442;-72
2021/06/13 01:29:00;;;;;;;5.90;4.10;;;;;;;15.32;72.54;101307.31;5089933;28;20028;-72
2021/06/13 01:31:36;;;;;;;5.82;4.32;;;;;;;15.31;73.29;101300.34;5089908;28;20028;-72
2021/06/13 01:34:07;;;;;;;6.82;4.55;;;;;;;15.26;71.79;101292.84;5085789;28;20111;-72
2021/06/13 01:36:35;;;;;;;6.10;4.15;;;;;;;15.19;71.71;101297.16;5089872;28;20328;-72
2021/06/13 01:39:09;;;;;;;5.68;3.78;;;;;;;15.15;73.64;101289.66;5089590;28;20028;-72
2021/06/13 01:41:37;;;;;;;6.13;3.95;;;;;;;15.15;71.83;101290.47;5082179;28;20525;-72
2021/06/13 01:44:04;;;;;;;6.88;4.43;;;;;;;15.12;71.52;101285.47;5090694;28;20028;-73
2021/06/13 01:46:35;;;;;;;6.78;4.22;;;;;;;15.14;70.71;101286.16;5090950;28;20116;-72
2021/06/13 01:49:02;;;;;;;6.72;4.10;;;;;;;15.11;70.20;101290.97;5090031;28;20400;-72
2021/06/13 01:51:30;;;;;;;5.22;3.58;;;;;;;15.13;71.68;101283.66;5089517;28;20027;-72
2021/06/13 01:53:56;;;;;;;6.43;3.80;;;;;;;15.10;70.30;101281.31;5090533;28;20039;-72
2021/06/13 01:56:24;;;;;;;4.32;3.38;;;;;;;15.08;70.63;101278.81;5075630;28;20029;-72
2021/06/13 01:58:53;;;;;;;6.10;3.75;;;;;;;15.05;70.47;101284.47;5087559;28;20040;-72
2021/06/13 02:01:23;;;;;;;6.82;3.70;;;;;;;14.99;69.91;101285.97;5084965;28;20042;-72
2021/06/13 02:03:54;;;;;;;4.93;3.55;;;;;;;15.00;69.50;101292.94;5090867;28;20066;-72
2021/06/13 02:06:26;;;;;;;6.00;3.38;;;;;;;14.97;71.22;101293.28;5072413;28;20488;-72
2021/06/13 02:08:53;;;;;;;4.32;3.40;;;;;;;14.96;71.40;101291.59;5090644;28;20512;-72
2021/06/13 02:11:20;;;;;;;5.78;3.90;;;;;;;14.90;70.67;101286.06;5088933;28;20040;-72
2021/06/13 02:13:49;;;;;;;5.28;4.15;;;;;;;14.80;71.53;101284.41;5089148;28;20111;-71
2021/06/13 02:16:20;;;;;;;5.18;3.60;;;;;;;14.81;71.70;101285.22;5075485;28;20094;-72
2021/06/13 02:18:48;;;;;;;6.30;3.97;;;;;;;14.81;72.41;101298.53;5064338;28;20032;-71
2021/06/13 02:21:14;;;;;;;5.60;3.90;;;;;;;14.85;72.80;101299.91;5069346;28;20521;-71
2021/06/13 02:23:43;;;;;;;5.13;3.58;;;;;;;14.91;71.91;101301.06;5069509;28;20031;-72
2021/06/13 02:26:10;;;;;;;7.63;5.18;;;;;;;14.77;72.97;101306.00;5069473;28;20523;-72
2021/06/13 02:28:44;;;;;;;6.72;4.80;;;;;;;14.64;73.47;101302.97;5062101;28;20497;-71
2021/06/13 02:31:11;;;;;;;6.25;4.70;;;;;;;14.56;73.73;101300.25;5068550;28;20406;-71
2021/06/13 02:33:43;;;;;;;7.63;4.82;;;;;;;14.50;74.29;101296.38;5058080;28;20028;-72
2021/06/13 02:36:09;;;;;;;8.73;4.65;;;;;;;14.47;74.64;101290.50;5054339;28;20039;-72
2021/06/13 02:38:35;;;;;;;6.30;4.50;;;;;;;14.46;74.33;101295.00;5070055;28;20615;-72
2021/06/13 02:41:02;;;;;;;6.60;4.32;;;;;;;14.56;75.05;101305.56;5069607;28;20036;-71
2021/06/13 02:43:27;;;;;;;5.68;4.15;;;;;;;14.67;72.81;101310.63;5060002;28;20146;-72
2021/06/13 02:45:53;;;;;;;6.78;4.35;;;;;;;14.63;72.52;101315.44;5069769;28;20066;-72
2021/06/13 02:48:22;;;;;;;7.78;4.20;;;;;;;14.61;74.21;101316.56;5067244;28;20105;-72
2021/06/13 02:50:47;;;;;;;6.85;4.20;;;;;;;14.61;73.61;101322.75;5057091;28;20082;-72
2021/06/13 02:53:25;;;;;;;6.65;4.68;;;;;;;14.43;73.87;101321.94;5070027;28;20489;-72
2021/06/13 02:55:59;;;;;;;5.65;4.30;;;;;;;14.44;74.05;101319.13;5069999;28;20029;-72
2021/06/13 02:58:40;;;;;;;6.22;4.70;;;;;;;14.38;76.34;101329.56;5053179;28;20132;-72
2021/06/13 03:01:07;;;;;;;5.40;4.30;;;;;;;14.35;75.35;101322.75;5047776;28;20116;-71
2021/06/13 03:03:33;;;;;;;6.90;4.38;;;;;;;14.35;76.50;101327.19;5069668;28;20052;-71
2021/06/13 03:05:59;;;;;;;6.40;3.85;;;;;;;14.32;75.65;101330.19;5070332;28;20059;-72
2021/06/13 03:08:25;;;;;;;8.20;4.30;;;;;;;14.30;75.36;101333.03;5058180;28;20032;-71
2021/06/13 03:10:52;;;;;;;4.78;3.60;;;;;;;14.30;75.37;101342.81;5068122;28;20056;-71
2021/06/13 03:13:23;;;;;;;6.32;3.92;;;;;;;14.35;76.88;101344.03;5070273;28;20024;-72
2021/06/13 03:15:50;;;;;;;5.18;3.60;;;;;;;14.45;74.81;101346.56;5068691;28;20032;-71
2021/06/13 03:18:17;;;;;;;5.30;3.90;;;;;;;14.39;75.17;101349.84;5062457;28;20028;-72
2021/06/13 03:20:44;;;;;;;6.03;4.00;;;;;;;14.37;75.96;101341.19;5069436;28;20455;-72
2021/06/13 03:23:09;;;;;;;7.15;3.88;;;;;;;14.27;75.16;101348.44;5069634;28;20111;-72
2021/06/13 03:25:36;;;;;;;5.65;3.90;;;;;;;14.15;77.00;101354.00;5069476;28;20620;-71
2021/06/13 03:28:01;;;;;;;4.82;3.60;;;;;;;14.12;76.81;101356.97;5069227;28;20033;-72
2021/06/13 03:30:27;;;;;;;4.88;3.60;;;;;;;14.11;76.78;101359.78;5069480;28;20035;-72
2021/06/13 03:32:52;;;;;;;6.90;3.50;;;;;;;14.10;75.79;101358.13;5065497;28;20025;-71
2021/06/13 03:35:19;;;;;;;5.80;3.63;;;;;;;14.06;75.26;101357.59;5068209;28;20032;-71
2021/06/13 03:37:45;;;;;;;5.40;3.47;;;;;;;14.00;75.87;101363.53;5063258;28;20037;-72
2021/06/13 03:40:11;;;;;;;6.07;4.18;;;;;;;13.97;75.79;101366.50;5064857;28;20047;-72
2021/06/13 03:42:39;;;;;;;5.30;3.45;;;;;;;13.91;76.08;101367.94;5073533;28;20025;-72
2021/06/13 03:45:05;;;;;;;6.88;3.40;;;;;;;14.00;75.32;101375.00;5070158;28;20148;-72
2021/06/13 03:47:34;;;;;;;4.13;2.85;;;;;;;14.09;76.28;101375.91;5067329;28;20119;-71
2021/06/13 03:50:00;;;;;;;5.50;4.00;;;;;;;14.06;76.45;101375.38;5059560;28;20040;-72
2021/06/13 03:52:27;;;;;;;6.18;3.53;;;;;;;13.94;76.33;101380.09;5073237;28;20031;-71
2021/06/13 03:54:53;;;;;;;4.88;3.00;;;;;;;13.89;75.33;101377.88;5073800;28;20059;-72
2021/06/13 03:57:19;;;;;;;4.60;3.35;;;;;;;13.91;75.54;101380.41;5060246;28;20028;-72
2021/06/13 03:59:48;;;;;;;5.00;3.20;;;;;;;14.02;74.79;101380.19;5069361;28;20033;-71
2021/06/13 04:02:15;;;;;;;4.93;3.42;;;;;;;14.01;75.42;101387.34;5066689;28;20024;-72
2021/06/13 04:04:49;;;;;;;4.32;3.40;;;;;;;14.07;76.70;101382.38;5077425;28;20081;-71
2021/06/13 04:07:16;;;;;;;5.57;3.30;;;;;;;14.05;76.76;101389.69;5059389;28;20047;-71
2021/06/13 04:09:42;;;;;;;7.25;3.30;;;;;;;14.02;77.26;101391.66;5076910;28;20024;-71
2021/06/13 04:12:09;;;;;;;6.22;3.03;;;;;;;14.11;76.35;101384.59;5077397;28;20492;-72
2021/06/13 04:14:35;;;;;;;4.40;2.78;;;;;;;14.21;76.50;101395.13;5077466;28;20082;-71
2021/06/13 04:17:01;;;;;;;6.38;3.08;;;;;;;14.35;74.11;101394.56;5077688;28;20037;-71
2021/06/13 04:19:27;;;;;;;5.35;3.47;;;;;;;14.45;74.21;101405.94;5071702;28;20056;-71
2021/06/13 04:21:53;;;;;;;4.35;2.78;;;;;;;14.47;75.16;101407.59;5075010;28;20048;-71
2021/06/13 04:24:20;;;;;;;4.75;2.88;;;;;;;14.37;74.88;101410.38;5076493;28;20516;-72
2021/06/13 04:26:47;;;;;;;4.88;2.97;;;;;;;14.28;76.11;101411.28;5075225;28;20025;-71
2021/06/13 04:29:13;;;;;;;5.35;3.13;;;;;;;14.18;74.99;101409.56;5067587;28;20505;-72
2021/06/13 04:31:38;;;;;;;5.15;3.08;;;;;;;14.21;74.86;101416.41;5074095;28;20252;-71
2021/06/13 04:34:04;;;;;;;5.32;3.50;;;;;;;14.23;74.22;101417.94;5069377;28;20033;-72
2021/06/13 04:36:30;;;;;;;4.90;3.10;;;;;;;14.32;73.65;101420.63;5072968;28;20028;-72
2021/06/13 04:38:55;;;;;;;6.47;2.90;;;;;;;14.41;73.00;101425.03;5073203;28;20436;-71
2021/06/13 04:41:20;;;;;;;6.50;3.35;;;;;;;14.48;74.07;101430.59;5060016;28;20524;-71
2021/06/13 04:43:46;;;;;;;6.47;2.92;;;;;;;14.59;75.95;101435.69;5054029;28;20025;-71
2021/06/13 04:46:13;;;;;;;4.03;2.83;;;;;;;14.63;72.58;101439.69;5065741;28;20048;-72
2021/06/13 04:48:40;;;;;;;4.50;3.00;;;;;;;14.61;71.42;101442.53;5072509;28;20037;-72
2021/06/13 04:51:08;;;;;;;5.85;3.92;;;;;;;14.53;72.17;101434.44;5046800;28;20109;-71
2021/06/13 04:53:59;;;;;;;4.75;3.10;;;;;;;14.56;71.91;101442.16;5055351;28;20053;-71
2021/06/13 04:56:45;;;;;;;4.65;3.25;;;;;;;14.61;72.20;101437.22;5052397;28;20059;-72
2021/06/13 04:59:11;;;;;;;5.35;3.10;;;;;;;14.64;71.09;101436.06;5058755;28;20033;-71
2021/06/13 05:01:39;;;;;;;5.13;3.10;;;;;;;14.68;72.69;101439.22;5046766;28;20029;-72
2021/06/13 05:04:04;;;;;;;3.65;2.60;;;;;;;14.79;72.61;101450.47;5051703;28;20085;-72
2021/06/13 05:06:29;;;;;;;5.75;3.20;;;;;;;14.80;71.26;101457.47;5058394;28;20032;-72
2021/06/13 05:08:55;;;;;;;5.68;3.70;;;;;;;14.82;71.02;101454.63;5071872;28;20032;-71
2021/06/13 05:11:20;;;;;;;3.40;2.83;;;;;;;14.95;71.49;101455.06;5071385;28;20025;-71
2021/06/13 05:13:46;;;;;;;4.82;2.65;;;;;;;15.10;70.93;101457.97;5072008;28;20040;-72
2021/06/13 05:16:11;;;;;;;4.97;2.80;;;;;;;15.22;70.81;101463.84;5062940;28;20033;-72
2021/06/13 05:18:36;;;;;;;4.25;2.90;;;;;;;15.35;70.48;101463.41;5071673;28;20087;-71
2021/06/13 05:21:02;;;;;;;7.43;3.22;;;;;;;15.39;69.23;101456.75;5071211;28;20038;-72
2021/06/13 05:23:28;;;;;;;5.10;3.35;;;;;;;15.49;69.69;101465.44;5063399;28;20048;-71
2021/06/13 05:25:55;;;;;;;3.00;2.50;;;;;;;15.53;70.54;101466.81;5070656;28;20121;-71
2021/06/13 05:28:22;;;;;;;4.65;3.30;;;;;;;15.45;68.69;101464.94;5070948;28;20053;-71
2021/06/13 05:30:48;;;;;;;6.35;3.65;;;;;;;15.38;69.51;101461.25;5070717;28;20024;-72
2021/06/13 05:33:14;;;;;;;5.53;2.97;;;;;;;15.43;69.65;101477.59;5066666;28;20032;-72
2021/06/13 05:35:41;;;;;;;5.43;3.20;;;;;;;15.49;69.91;101474.31;5061839;28;20048;-71
2021/06/13 05:38:07;;;;;;;4.70;3.30;;;;;;;15.48;70.88;101480.63;5070860;28;20047;-72
2021/06/13 05:40:34;;;;;;;5.93;2.70;;;;;;;15.49;71.43;101486.78;5069580;28;20128;-72
2021/06/13 05:42:59;;;;;;;6.68;3.33;;;;;;;15.61;70.66;101490.00;5071210;28;20057;-71
2021/06/13 05:45:26;;;;;;;4.95;3.40;;;;;;;15.71;70.35;101496.06;5070186;28;20059;-72
2021/06/13 05:47:53;;;;;;;5.40;3.00;;;;;;;15.86;69.53;101489.09;5060347;28;20036;-71
2021/06/13 05:50:18;;;;;;;7.47;3.22;;;;;;;15.99;69.98;101490.47;5063734;28;20250;-72
2021/06/13 05:52:44;;;;;;;4.00;2.65;;;;;;;16.34;68.40;101498.19;5066759;28;20025;-72
2021/06/13 05:55:11;;;;;;;5.47;3.05;;;;;;;16.61;66.87;101496.19;5070971;28;20027;-71
2021/06/13 05:57:37;;;;;;;5.38;2.40;;;;;;;16.99;66.07;101504.53;5069195;28;20028;-72
2021/06/13 06:00:09;;;;;;;6.00;2.58;;;;;;;17.45;66.51;101506.56;5067156;28;20394;-73
2021/06/13 06:02:35;;;;;;;3.90;2.17;;;;;;;17.73;64.26;101513.16;5066324;28;20341;-72
2021/06/13 06:05:00;;;;;;;4.70;2.30;;;;;;;18.09;62.72;101506.44;5067926;28;20123;-72
2021/06/13 06:07:26;;;;;;;3.65;2.00;;;;;;;18.43;60.58;101509.53;5065055;28;20281;-72
2021/06/13 06:09:51;;;;;;;5.88;2.80;;;;;;;18.72;61.57;101507.13;5070448;28;20036;-71
2021/06/13 06:12:16;;;;;;;3.22;1.80;;;;;;;19.02;58.92;101508.88;5070146;28;20504;-72
2021/06/13 06:14:43;;;;;;;5.22;2.22;;;;;;;19.10;56.62;101516.00;5070355;28;20036;-72
2021/06/13 06:17:09;;;;;;;3.55;2.22;;;;;;;19.37;55.91;101527.09;5070271;28;20055;-72
2021/06/13 06:19:34;;;;;;;3.72;1.80;;;;;;;19.48;55.79;101524.78;5070183;28;20056;-72
2021/06/13 06:21:59;;;;;;;2.97;1.80;;;;;;;19.80;53.93;101525.41;5069916;28;20497;-72
2021/06/13 06:24:25;;;;;;;3.80;1.40;;;;;;;20.20;53.24;101519.66;5061766;28;20028;-72
2021/06/13 06:26:50;;;;;;;2.88;1.50;;;;;;;20.60;52.60;101528.97;5061966;28;20044;-72
2021/06/13 06:29:16;;;;;;;3.17;1.50;;;;;;;20.92;50.51;101527.56;5066105;28;20498;-72
2021/06/13 06:31:41;;;;;;;4.65;1.90;;;;;;;20.98;48.74;101534.03;5058367;28;20024;-72
2021/06/13 06:34:07;;;;;;;5.25;2.20;;;;;;;21.06;47.07;101541.94;5062502;28;20509;-72
2021/06/13 06:36:32;;;;;;;6.28;2.05;;;;;;;20.94;47.76;101543.50;5065440;28;20032;-72
2021/06/13 06:38:57;;;;;;;4.65;1.98;;;;;;;20.90;48.12;101543.03;5070286;28;20509;-72
2021/06/13 06:41:23;;;;;;;3.53;1.60;;;;;;;21.19;48.30;101536.66;5069629;28;20129;-72
2021/06/13 06:43:48;;;;;;;4.43;1.85;;;;;;;21.02;46.07;101540.66;5069593;28;20055;-72
2021/06/13 06:46:13;;;;;;;3.28;1.55;;;;;;;21.44;47.29;101538.88;5069350;28;20109;-72
2021/06/13 06:48:38;;;;;;;5.13;1.88;;;;;;;21.73;47.41;101539.63;5068539;28;20043;-72
2021/06/13 06:51:04;;;;;;;6.22;1.85;;;;;;;22.13;45.61;101542.47;5058704;28;20029;-72
2021/06/13 06:53:29;;;;;;;4.28;2.33;;;;;;;22.62;42.92;101544.88;5063395;28;20149;-72
2021/06/13 06:55:54;;;;;;;4.43;1.63;;;;;;;22.78;44.45;101542.78;5061724;28;20037;-72
2021/06/13 06:58:20;;;;;;;4.82;1.80;;;;;;;23.18;44.39;101553.56;5063996;28;20451;-72
2021/06/13 07:00:45;;;;;;;3.90;1.58;;;;;;;23.60;40.88;101560.31;5059569;28;20029;-72
2021/06/13 07:03:11;;;;;;;3.72;1.60;;;;;;;23.65;42.17;101556.97;5049499;28;20030;-72
2021/06/13 07:05:37;;;;;;;5.00;1.40;;;;;;;23.65;40.55;101562.38;5065348;28;20032;-72
2021/06/13 07:08:02;;;;;;;4.47;1.40;;;;;;;23.65;42.33;101567.78;5069207;28;20040;-73
2021/06/13 07:10:28;;;;;;;3.28;1.30;;;;;;;24.17;42.92;101563.19;5069366;28;20032;-72
2021/06/13 07:12:53;;;;;;;3.40;1.30;;;;;;;24.46;41.61;101559.09;5052682;28;20128;-72
2021/06/13 07:15:19;;;;;;;5.05;1.55;;;;;;;24.58;40.01;101565.44;5070050;28;20844;-72
2021/06/13 07:17:45;;;;;;;4.15;1.63;;;;;;;24.80;41.70;101570.47;5068012;28;20029;-72
2021/06/13 07:20:11;;;;;;;4.18;1.48;;;;;;;24.39;41.08;101569.09;5068995;28;20029;-72
2021/06/13 07:22:38;;;;;;;4.10;1.30;;;;;;;23.19;41.53;101580.34;5068309;28;20074;-72
2021/06/13 07:25:06;;;;;;;5.45;1.70;;;;;;;22.64;44.26;101579.69;5069370;28;20024;-72
2021/06/13 07:27:31;;;;;;;4.28;1.52;;;;;;;22.95;43.03;101579.06;5069367;28;20115;-72
2021/06/13 07:29:56;;;;;;;2.33;1.23;;;;;;;23.56;40.76;101587.94;5068984;28;20103;-72
2021/06/13 07:32:22;;;;;;;3.92;1.50;;;;;;;23.80;40.41;101584.56;5067901;28;20481;-72
2021/06/13 07:34:47;;;;;;;3.72;1.45;;;;;;;24.26;40.90;101588.91;5066406;28;20078;-72
2021/06/13 07:37:13;;;;;;;3.35;1.35;;;;;;;24.48;39.08;101580.47;5069038;28;20524;-72
2021/06/13 07:39:38;;;;;;;2.67;1.48;;;;;;;24.56;40.98;101578.34;5069411;28;20394;-72
2021/06/13 07:42:04;;;;;;;2.95;1.48;;;;;;;25.17;40.44;101578.66;5069138;28;20020;-72
2021/06/13 07:44:30;;;;;;;3.90;1.40;;;;;;;25.55;37.33;101573.09;5069054;28;20028;-72
2021/06/13 07:46:57;;;;;;;4.78;1.50;;;;;;;25.07;37.87;101581.88;5067408;28;20547;-72
2021/06/13 07:49:23;;;;;;;3.65;1.50;;;;;;;25.01;36.99;101580.09;5069455;28;20029;-72
2021/06/13 07:51:48;;;;;;;3.50;1.30;;;;;;;25.41;36.44;101585.97;5068919;28;20465;-72
2021/06/13 07:54:14;;;;;;;3.83;1.35;;;;;;;24.94;39.56;101579.31;5067790;28;20036;-72
2021/06/13 07:56:39;;;;;;;3.03;1.15;;;;;;;25.08;37.42;101574.63;5069204;28;20053;-72
2021/06/13 07:59:05;;;;;;;4.35;1.80;;;;;;;24.59;37.69;101577.09;5069143;28;20077;-72
2021/06/13 08:01:30;;;;;;;2.70;1.15;;;;;;;25.10;38.51;101578.75;5061727;28;20037;-71
2021/06/13 08:03:55;;;;;;;2.75;1.20;;;;;;;25.53;36.76;101580.63;5069225;28;20447;-72
2021/06/13 08:06:21;;;;;;;3.00;1.20;;;;;;;25.97;37.54;101573.22;5068499;28;20039;-72
2021/06/13 08:08:46;;;;;;;4.80;1.65;;;;;;;26.18;36.13;101580.03;5068826;28;20021;-72
2021/06/13 08:11:12;;;;;;;2.35;1.10;;;;;;;26.17;34.09;101575.69;5068863;28;20055;-72
2021/06/13 08:13:38;;;;;;;4.65;2.08;;;;;;;26.01;35.58;101581.75;5062041;28;20037;-72
2021/06/13 08:16:05;;;;;;;3.13;1.45;;;;;;;25.93;36.57;101574.72;5067814;28;20028;-72
2021/06/13 08:18:30;;;;;;;3.50;1.40;;;;;;;26.22;34.11;101575.00;5068762;28;20033;-72
2021/06/13 08:20:56;;;;;;;3.20;1.27;;;;;;;26.48;35.23;101569.16;5068668;28;20037;-72
2021/06/13 08:23:21;;;;;;;3.40;1.55;;;;;;;26.53;33.96;101562.19;5069150;28;20393;-71
2021/06/13 08:25:47;;;;;;;2.20;1.00;;;;;;;26.93;34.71;101567.00;5071981;28;20106;-72
2021/06/13 08:28:13;;;;;;;5.10;1.63;;;;;;;27.57;33.21;101565.19;5071492;28;20039;-72
2021/06/13 08:30:38;;;;;;;5.65;1.50;;;;;;;27.95;33.29;101567.34;5071344;28;20052;-72
2021/06/13 08:33:04;;;;;;;2.88;1.30;;;;;;;27.92;33.04;101569.75;5059989;28;20036;-72
2021/06/13 08:35:29;;;;;;;4.72;1.40;;;;;;;27.81;32.62;101574.09;5064062;28;20516;-72
2021/06/13 08:37:57;;;;;;;3.13;1.40;;;;;;;27.95;31.45;101569.25;5072690;28;20501;-72
2021/06/13 08:40:23;;;;;;;3.90;1.50;;;;;;;27.48;33.32;101566.63;5064626;28;20420;-72
2021/06/13 08:42:48;;;;;;;3.30;1.30;;;;;;;27.56;30.80;101569.00;5053297;28;20064;-72
2021/06/13 08:45:15;;;;;;;4.55;1.70;;;;;;;27.61;32.19;101555.50;5072272;28;20240;-72
2021/06/13 08:47:41;;;;;;;3.80;1.55;;;;;;;27.68;32.53;101564.34;5062336;28;20131;-72
2021/06/13 08:50:09;;;;;;;3.63;1.50;;;;;;;27.85;32.12;101564.44;5071357;28;20252;-72
2021/06/13 08:52:34;;;;;;;3.80;1.33;;;;;;;27.58;32.67;101572.31;5072120;28;20033;-72
2021/06/13 08:54:59;;;;;;;2.97;1.38;;;;;;;27.56;32.05;101570.88;5071881;28;20102;-72
2021/06/13 08:57:25;;;;;;;5.07;1.80;;;;;;;27.77;31.17;101569.38;5072051;28;20032;-72
2021/06/13 08:59:52;;;;;;;2.45;1.20;;;;;;;27.27;33.16;101566.22;5070475;28;20063;-72
2021/06/13 09:02:17;;;;;;;4.47;1.65;;;;;;;27.00;32.13;101554.97;5063979;28;20032;-72
2021/06/13 09:04:43;;;;;;;4.38;1.58;;;;;;;26.69;32.53;101570.50;5071966;28;20110;-71
2021/06/13 09:07:22;;;;;;;6.18;1.77;;;;;;;26.68;34.03;101566.16;5070333;28;20032;-72
2021/06/13 09:09:48;;;;;;;2.63;1.50;;;;;;;26.88;34.11;101567.72;5071789;28;20029;-72
2021/06/13 09:12:13;;;;;;;4.40;1.60;;;;;;;27.05;32.60;101570.53;5069899;28;20031;-72
2021/06/13 09:14:44;;;;;;;3.67;1.65;;;;;;;25.66;33.27;101579.63;5071369;28;20056;-72
2021/06/13 09:17:13;;;;;;;3.75;1.58;;;;;;;25.66;34.78;101585.06;5072059;28;20032;-72
2021/06/13 09:20:01;;;;;;;3.30;1.30;;;;;;;25.61;33.92;101579.50;5071871;28;20448;-73
2021/06/13 09:22:26;;;;;;;3.53;1.38;;;;;;;25.67;35.00;101584.00;5056936;28;20033;-72
2021/06/13 09:25:13;;;;;;;2.60;1.27;;;;;;;25.42;35.25;101587.59;5069016;28;20528;-72
2021/06/13 09:27:40;;;;;;;2.75;1.33;;;;;;;25.40;35.27;101586.19;5071284;28;20071;-72
2021/06/13 09:30:08;;;;;;;3.53;1.60;;;;;;;25.50;35.38;101577.53;5067558;28;20040;-73
2021/06/13 09:33:03;;;;;;;3.92;1.60;;;;;;;25.30;35.25;101572.34;5063818;28;20033;-72
2021/06/13 09:35:30;;;;;;;3.85;1.70;;;;;;;25.38;36.56;101580.97;5066194;28;20094;-72
2021/06/13 09:38:13;;;;;;;4.05;1.40;;;;;;;25.50;35.22;101575.63;5069672;28;20527;-71
2021/06/13 09:40:41;;;;;;;4.70;1.45;;;;;;;25.35;35.18;101580.59;5069240;28;20539;-72
2021/06/13 09:43:20;;;;;;;2.78;1.55;;;;;;;25.66;34.86;101576.09;5091384;28;20031;-72
2021/06/13 09:45:58;;;;;;;3.25;1.60;;;;;;;25.20;35.00;101579.09;5091246;28;20055;-72
2021/06/13 09:48:24;;;;;;;3.38;1.58;;;;;;;25.14;35.10;101576.41;5089223;28;20031;-72
2021/06/13 09:50:53;;;;;;;3.88;1.65;;;;;;;25.05;35.53;101569.63;5091387;28;20044;-72
2021/06/13 09:53:32;;;;;;;3.13;1.60;;;;;;;24.58;36.78;101575.44;5086795;28;20061;-72
2021/06/13 09:56:08;;;;;;;3.35;1.60;;;;;;;24.50;36.80;101575.69;5089941;28;20429;-72
2021/06/13 09:58:34;;;;;;;3.65;1.50;;;;;;;24.67;37.33;101576.84;5091375;28;20119;-72
2021/06/13 10:01:08;;;;;;;2.83;1.50;;;;;;;24.79;36.13;101572.34;5084752;28;20040;-72
2021/06/13 10:03:36;;;;;;;5.60;1.70;;;;;;;24.79;35.91;101571.53;5090936;28;20511;-72
2021/06/13 10:06:04;;;;;;;4.38;1.77;;;;;;;24.51;35.76;101570.06;5091481;28;20024;-73
2021/06/13 10:08:30;;;;;;;3.08;1.45;;;;;;;24.51;37.85;101564.66;5090377;28;20369;-72
2021/06/13 10:10:58;;;;;;;4.28;1.60;;;;;;;24.49;36.61;101557.81;5089661;28;20035;-72
2021/06/13 10:13:48;;;;;;;2.83;1.35;;;;;;;24.68;38.13;101567.66;5084676;28;20076;-75
2021/06/13 10:16:31;;;;;;;4.00;1.70;;;;;;;24.80;36.35;101556.94;5091161;28;20081;-72
2021/06/13 10:19:01;;;;;;;3.20;1.50;;;;;;;24.56;36.59;101561.31;5090852;28;20032;-72
2021/06/13 10:21:30;;;;;;;4.10;1.67;;;;;;;24.80;36.54;101556.94;5090405;28;20032;-72
2021/06/13 10:23:57;;;;;;;4.20;1.60;;;;;;;24.82;35.75;101552.16;5090246;28;20105;-72
2021/06/13 10:26:22;;;;;;;4.13;1.67;;;;;;;24.56;35.59;101545.09;5085080;28;20086;-72
2021/06/13 10:28:48;;;;;;;5.07;1.60;;;;;;;24.15;38.43;101554.47;5088472;28;20028;-74
2021/06/13 10:31:14;;;;;;;3.15;1.60;;;;;;;24.27;38.85;101552.75;5086652;28;20096;-74
2021/06/13 10:33:41;;;;;;;4.85;1.80;;;;;;;24.38;36.86;101549.34;5077857;28;20388;-74
2021/06/13 10:36:07;;;;;;;5.45;1.95;;;;;;;24.28;36.50;101548.97;5088601;28;20039;-74
2021/06/13 10:38:32;;;;;;;3.60;1.75;;;;;;;24.26;36.79;101537.53;5083803;28;20029;-74
2021/06/13 10:40:59;;;;;;;4.03;1.85;;;;;;;24.29;37.45;101539.00;5088564;28;20036;-74
2021/06/13 10:43:30;;;;;;;3.28;1.67;;;;;;;24.40;35.87;101548.28;5090500;28;20035;-74
2021/06/13 10:46:03;;;;;;;;;;;;;;;24.21;36.97;101548.19;5082370;28;20428;-74
2021/06/13 10:48:36;;;;;;;4.57;1.63;;;;;;;24.12;36.58;101539.53;5088615;28;20230;-74
2021/06/13 10:51:28;;;;;;;4.80;1.80;;;;;;;23.93;37.34;101537.75;5090035;28;20039;-74
2021/06/13 10:54:14;;;;;;;4.45;2.03;;;;;;;23.99;36.94;101533.38;5090055;28;20035;-74
2021/06/13 10:56:39;;;;;;;6.35;2.00;;;;;;;23.91;37.07;101537.16;5081926;28;20059;-74
2021/06/13 10:59:12;;;;;;;3.22;1.83;;;;;;;23.93;37.44;101526.94;5089437;28;20021;-74
2021/06/13 11:01:56;;;;;;;5.55;2.15;;;;;;;24.09;38.44;101536.41;5083684;28;20056;-74
2021/06/13 11:04:53;;;;;;;4.88;1.90;;;;;;;24.12;37.06;101538.69;5090287;28;20044;-74
2021/06/13 11:07:34;;;;;;;4.95;2.00;;;;;;;23.92;36.71;101534.22;5090490;28;20519;-74
2021/06/13 11:13:00;;;;;;;4.57;1.83;;;;;;;24.15;37.30;101541.78;5089768;28;20028;-74
2021/06/13 11:15:31;;;;;;;4.90;1.98;;;;;;;24.26;37.69;101531.31;5088674;28;20110;-74
2021/06/13 11:18:04;;;;;;;4.78;2.13;;;;;;;24.52;36.72;101527.63;5090052;28;20400;-74
2021/06/13 11:23:04;;;;;;;2.97;1.60;;;;;;;24.57;37.67;101525.09;5090208;28;20063;-74
2021/06/13 11:25:30;;;;;;;5.15;2.40;;;;;;;24.47;36.04;101532.88;5089500;28;20040;-74
2021/06/13 11:28:17;;;;;;;6.72;2.97;;;;;;;24.49;36.28;101537.00;5089907;28;20554;-74
2021/06/13 11:30:48;;;;;;;3.50;1.63;;;;;;;24.41;36.15;101531.00;5089385;28;20040;-74
2021/06/13 11:33:38;;;;;;;5.07;2.22;;;;;;;24.36;35.99;101521.69;5081841;28;20066;-74
2021/06/13 11:36:25;;;;;;;5.63;2.30;;;;;;;24.42;36.98;101528.09;5089404;28;20039;-74